sensor_id;sensor_type;location;lat;lon;timestamp;pressure;altitude;pressure_sealevel;temperature;humidity
6514;BME280;3290;47.716;9.070;2023-02-23T00:00:17;96647.63;;;11.62;100.00
6514;BME280;3290;47.716;9.070;2023-02-23T00:02:48;96641.56;;;11.61;100.00
6514;BME280;3290;47.716;9.070;2023-02-23T00:05:14;96642.59;;;11.60;100.00
6514;BME280;3290;47.716;9.070;2023-02-23T00:07:43;96642.03;;;11.59;100.00
6514;BME280;3290;47.716;9.070;2023-02-23T00:10:12;96646.94;;;11.55;100.00
6514;BME280;3290;47.716;9.070;2023-02-23T00:12:38;96649.56;;;11.66;100.00
6514;BME280;3290;47.716;9.070;2023-02-23T00:15:04;96647.72;;;11.56;100.00
6514;BME280;3290;47.716;9.070;2023-02-23T00:17:31;96644.66;;;11.70;100.00
6514;BME280;3290;47.716;9.070;2023-02-23T00:19:57;96648.31;;;11.58;100.00
6514;BME280;3290;47.716;9.070;2023-02-23T00:22:24;96648.31;;;11.58;100.00
6514;BME280;3290;47.716;9.070;2023-02-23T00:24:49;96644.09;;;11.68;100.00
6514;BME280;3290;47.716;9.070;2023-02-23T00:27:15;96649.13;;;11.69;100.00
6514;BME280;3290;47.716;9.070;2023-02-23T00:29:45;96650.47;;;11.72;100.00
6514;BME280;3290;47.716;9.070;2023-02-23T00:32:14;96645.94;;;11.67;100.00
6514;BME280;3290;47.716;9.070;2023-02-23T00:34:44;96640.53;;;11.74;100.00
6514;BME280;3290;47.716;9.070;2023-02-23T00:37:09;96654.13;;;11.82;100.00
6514;BME280;3290;47.716;9.070;2023-02-23T00:39:36;96646.00;;;11.95;100.00
6514;BME280;3290;47.716;9.070;2023-02-23T00:42:02;96645.81;;;11.85;100.00
6514;BME280;3290;47.716;9.070;2023-02-23T00:44:27;96642.75;;;11.88;100.00
6514;BME280;3290;47.716;9.070;2023-02-23T00:46:53;96645.09;;;11.90;100.00
6514;BME280;3290;47.716;9.070;2023-02-23T00:49:19;96638.63;;;11.92;100.00
6514;BME280;3290;47.716;9.070;2023-02-23T00:51:46;96639.66;;;12.02;100.00
6514;BME280;3290;47.716;9.070;2023-02-23T00:54:12;96640.09;;;12.11;100.00
6514;BME280;3290;47.716;9.070;2023-02-23T00:56:38;96646.63;;;11.97;100.00
6514;BME280;3290;47.716;9.070;2023-02-23T00:59:04;96637.91;;;12.08;100.00
6514;BME280;3290;47.716;9.070;2023-02-23T01:01:29;96641.56;;;11.84;100.00
6514;BME280;3290;47.716;9.070;2023-02-23T01:03:54;96638.50;;;11.87;100.00
6514;BME280;3290;47.716;9.070;2023-02-23T01:06:20;96639.06;;;11.89;100.00
6514;BME280;3290;47.716;9.070;2023-02-23T01:08:48;96633.50;;;11.97;100.00
6514;BME280;3290;47.716;9.070;2023-02-23T01:11:17;96639.75;;;11.96;100.00
6514;BME280;3290;47.716;9.070;2023-02-23T01:13:44;96637.81;;;11.92;100.00
6514;BME280;3290;47.716;9.070;2023-02-23T01:16:14;96637.56;;;11.93;100.00
6514;BME280;3290;47.716;9.070;2023-02-23T01:18:41;96642.97;;;11.64;100.00
6514;BME280;3290;47.716;9.070;2023-02-23T01:21:22;96637.25;;;11.78;100.00
6514;BME280;3290;47.716;9.070;2023-02-23T01:23:49;96643.06;;;11.58;100.00
6514;BME280;3290;47.716;9.070;2023-02-23T01:26:36;96635.75;;;11.59;100.00
6514;BME280;3290;47.716;9.070;2023-02-23T01:29:07;96639.28;;;11.54;100.00
6514;BME280;3290;47.716;9.070;2023-02-23T01:31:35;96642.59;;;11.60;100.00
6514;BME280;3290;47.716;9.070;2023-02-23T01:34:02;96634.06;;;11.76;100.00
6514;BME280;3290;47.716;9.070;2023-02-23T01:36:32;96626.53;;;11.80;100.00
6514;BME280;3290;47.716;9.070;2023-02-23T01:38:58;96629.47;;;11.72;100.00
6514;BME280;3290;47.716;9.070;2023-02-23T01:41:26;96628.34;;;11.79;100.00
6514;BME280;3290;47.716;9.070;2023-02-23T01:43:56;96621.84;;;11.82;100.00
6514;BME280;3290;47.716;9.070;2023-02-23T01:46:21;96627.66;;;11.84;100.00
6514;BME280;3290;47.716;9.070;2023-02-23T01:48:46;96622.63;;;11.82;100.00
6514;BME280;3290;47.716;9.070;2023-02-23T01:51:18;96627.75;;;12.00;100.00
6514;BME280;3290;47.716;9.070;2023-02-23T01:53:59;96625.47;;;12.03;100.00
6514;BME280;3290;47.716;9.070;2023-02-23T01:56:30;96622.06;;;12.03;100.00
6514;BME280;3290;47.716;9.070;2023-02-23T01:58:58;96625.69;;;12.13;100.00
6514;BME280;3290;47.716;9.070;2023-02-23T02:01:27;96621.00;;;12.15;100.00
6514;BME280;3290;47.716;9.070;2023-02-23T02:03:56;96622.63;;;12.05;100.00
6514;BME280;3290;47.716;9.070;2023-02-23T02:06:24;96613.94;;;11.93;100.00
6514;BME280;3290;47.716;9.070;2023-02-23T02:08:55;96612.03;;;11.77;100.00
6514;BME280;3290;47.716;9.070;2023-02-23T02:11:22;96615.31;;;11.84;100.00
6514;BME280;3290;47.716;9.070;2023-02-23T02:14:00;96613.50;;;11.96;100.00
6514;BME280;3290;47.716;9.070;2023-02-23T02:25:11;96613.00;;;11.31;100.00
6514;BME280;3290;47.716;9.070;2023-02-23T02:39:01;96609.34;;;11.32;100.00
6514;BME280;3290;47.716;9.070;2023-02-23T02:44:33;96608.25;;;11.51;100.00
6514;BME280;3290;47.716;9.070;2023-02-23T02:47:08;96602.72;;;11.41;100.00
6514;BME280;3290;47.716;9.070;2023-02-23T02:49:53;96595.13;;;11.39;100.00
6514;BME280;3290;47.716;9.070;2023-02-23T02:52:34;96597.66;;;11.57;100.00
6514;BME280;3290;47.716;9.070;2023-02-23T02:55:23;96599.81;;;11.49;100.00
6514;BME280;3290;47.716;9.070;2023-02-23T02:57:52;96596.69;;;11.29;100.00
6514;BME280;3290;47.716;9.070;2023-02-23T03:00:26;96597.28;;;11.31;100.00
6514;BME280;3290;47.716;9.070;2023-02-23T03:03:35;96593.69;;;11.14;100.00
6514;BME280;3290;47.716;9.070;2023-02-23T03:06:21;96591.69;;;11.27;100.00
6514;BME280;3290;47.716;9.070;2023-02-23T03:09:30;96598.28;;;11.30;100.00
6514;BME280;3290;47.716;9.070;2023-02-23T03:12:41;96593.50;;;11.38;100.00
6514;BME280;3290;47.716;9.070;2023-02-23T03:18:48;96596.53;;;11.01;100.00
6514;BME280;3290;47.716;9.070;2023-02-23T03:28:05;96603.66;;;11.23;100.00
6514;BME280;3290;47.716;9.070;2023-02-23T03:31:02;96605.66;;;11.21;100.00
6514;BME280;3290;47.716;9.070;2023-02-23T03:36:51;96602.81;;;11.12;100.00
6514;BME280;3290;47.716;9.070;2023-02-23T03:39:54;96601.34;;;11.04;100.00
6514;BME280;3290;47.716;9.070;2023-02-23T03:42:43;96609.50;;;10.96;100.00
6514;BME280;3290;47.716;9.070;2023-02-23T03:45:28;96605.69;;;10.81;100.00
6514;BME280;3290;47.716;9.070;2023-02-23T03:48:15;96612.13;;;10.67;100.00
6514;BME280;3290;47.716;9.070;2023-02-23T03:51:05;96601.41;;;10.57;100.00
6514;BME280;3290;47.716;9.070;2023-02-23T03:56:52;96603.91;;;10.64;100.00
6514;BME280;3290;47.716;9.070;2023-02-23T03:59:54;96616.72;;;10.72;100.00
6514;BME280;3290;47.716;9.070;2023-02-23T04:02:41;96614.22;;;10.77;100.00
6514;BME280;3290;47.716;9.070;2023-02-23T04:05:27;96611.41;;;10.78;100.00
6514;BME280;3290;47.716;9.070;2023-02-23T04:08:13;96608.53;;;10.79;100.00
6514;BME280;3290;47.716;9.070;2023-02-23T04:11:36;96611.78;;;10.64;100.00
6514;BME280;3290;47.716;9.070;2023-02-23T04:14:40;96615.94;;;10.82;100.00
6514;BME280;3290;47.716;9.070;2023-02-23T04:17:08;96610.84;;;10.87;100.00
6514;BME280;3290;47.716;9.070;2023-02-23T04:19:34;96613.72;;;10.97;100.00
6514;BME280;3290;47.716;9.070;2023-02-23T04:22:00;96608.78;;;10.89;100.00
6514;BME280;3290;47.716;9.070;2023-02-23T04:24:25;96615.53;;;10.97;100.00
6514;BME280;3290;47.716;9.070;2023-02-23T04:26:50;96607.31;;;10.82;100.00
6514;BME280;3290;47.716;9.070;2023-02-23T04:29:16;96616.91;;;10.59;100.00
6514;BME280;3290;47.716;9.070;2023-02-23T04:31:41;96615.81;;;10.48;100.00
6514;BME280;3290;47.716;9.070;2023-02-23T04:34:07;96618.47;;;10.60;100.00
6514;BME280;3290;47.716;9.070;2023-02-23T04:36:32;96615.28;;;10.58;100.00
6514;BME280;3290;47.716;9.070;2023-02-23T04:38:58;96618.84;;;10.63;100.00
6514;BME280;3290;47.716;9.070;2023-02-23T04:41:23;96620.81;;;10.68;100.00
6514;BME280;3290;47.716;9.070;2023-02-23T04:43:49;96618.75;;;10.70;100.00
6514;BME280;3290;47.716;9.070;2023-02-23T04:46:14;96622.84;;;10.66;100.00
6514;BME280;3290;47.716;9.070;2023-02-23T04:48:39;96623.91;;;10.76;100.00
6514;BME280;3290;47.716;9.070;2023-02-23T04:51:05;96622.53;;;10.74;100.00
6514;BME280;3290;47.716;9.070;2023-02-23T04:53:31;96627.13;;;10.78;100.00
6514;BME280;3290;47.716;9.070;2023-02-23T04:55:56;96626.88;;;10.79;100.00
6514;BME280;3290;47.716;9.070;2023-02-23T04:58:21;96624.09;;;10.63;100.00
6514;BME280;3290;47.716;9.070;2023-02-23T05:00:47;96623.72;;;10.60;100.00
6514;BME280;3290;47.716;9.070;2023-02-23T05:03:12;96622.72;;;10.61;100.00
6514;BME280;3290;47.716;9.070;2023-02-23T05:05:38;96622.88;;;10.48;100.00
6514;BME280;3290;47.716;9.070;2023-02-23T05:08:04;96622.13;;;10.59;100.00
6514;BME280;3290;47.716;9.070;2023-02-23T05:10:29;96615.38;;;10.51;100.00
6514;BME280;3290;47.716;9.070;2023-02-23T05:12:55;96619.53;;;10.41;100.00
6514;BME280;3290;47.716;9.070;2023-02-23T05:15:21;96622.88;;;10.48;100.00
6514;BME280;3290;47.716;9.070;2023-02-23T05:17:46;96619.31;;;10.42;100.00
6514;BME280;3290;47.716;9.070;2023-02-23T05:20:13;96617.06;;;10.46;100.00
6514;BME280;3290;47.716;9.070;2023-02-23T05:22:38;96615.47;;;10.45;100.00
6514;BME280;3290;47.716;9.070;2023-02-23T05:25:05;96618.91;;;10.57;100.00
6514;BME280;3290;47.716;9.070;2023-02-23T05:27:31;96615.53;;;10.38;100.00
6514;BME280;3290;47.716;9.070;2023-02-23T05:29:57;96607.63;;;10.27;100.00
6514;BME280;3290;47.716;9.070;2023-02-23T05:32:22;96608.44;;;10.28;100.00
6514;BME280;3290;47.716;9.070;2023-02-23T05:34:48;96609.78;;;10.30;100.00
6514;BME280;3290;47.716;9.070;2023-02-23T05:37:13;96609.78;;;10.30;100.00
6514;BME280;3290;47.716;9.070;2023-02-23T05:39:39;96614.25;;;10.12;100.00
6514;BME280;3290;47.716;9.070;2023-02-23T05:42:05;96619.56;;;10.05;100.00
6514;BME280;3290;47.716;9.070;2023-02-23T05:44:30;96613.38;;;10.18;100.00
6514;BME280;3290;47.716;9.070;2023-02-23T05:46:55;96616.72;;;10.07;100.00
6514;BME280;3290;47.716;9.070;2023-02-23T05:49:21;96611.44;;;10.13;100.00
6514;BME280;3290;47.716;9.070;2023-02-23T05:51:46;96618.53;;;10.24;100.00
6514;BME280;3290;47.716;9.070;2023-02-23T05:54:12;96607.63;;;10.27;100.00
6514;BME280;3290;47.716;9.070;2023-02-23T05:56:38;96612.88;;;10.27;100.00
6514;BME280;3290;47.716;9.070;2023-02-23T05:59:04;96614.16;;;10.18;100.00
6514;BME280;3290;47.716;9.070;2023-02-23T06:01:30;96611.09;;;10.39;100.00
6514;BME280;3290;47.716;9.070;2023-02-23T06:03:56;96608.69;;;10.38;100.00
6514;BME280;3290;47.716;9.070;2023-02-23T06:06:21;96617.38;;;10.20;100.00
6514;BME280;3290;47.716;9.070;2023-02-23T06:08:49;96611.63;;;10.30;100.00
6514;BME280;3290;47.716;9.070;2023-02-23T06:11:15;96623.41;;;10.21;100.00
6514;BME280;3290;47.716;9.070;2023-02-23T06:13:40;96624.63;;;10.18;100.00
6514;BME280;3290;47.716;9.070;2023-02-23T06:16:06;96628.28;;;10.17;100.00
6514;BME280;3290;47.716;9.070;2023-02-23T06:18:32;96628.44;;;10.04;100.00
6514;BME280;3290;47.716;9.070;2023-02-23T06:20:59;96633.22;;;10.07;100.00
6514;BME280;3290;47.716;9.070;2023-02-23T06:23:26;96636.59;;;9.90;100.00
6514;BME280;3290;47.716;9.070;2023-02-23T06:25:51;96637.84;;;9.88;100.00
6514;BME280;3290;47.716;9.070;2023-02-23T06:28:17;96641.03;;;9.90;100.00
6514;BME280;3290;47.716;9.070;2023-02-23T06:30:42;96639.03;;;9.92;100.00
6514;BME280;3290;47.716;9.070;2023-02-23T06:33:08;96644.25;;;9.92;100.00
6514;BME280;3290;47.716;9.070;2023-02-23T06:35:34;96639.41;;;9.95;100.00
6514;BME280;3290;47.716;9.070;2023-02-23T06:37:59;96635.66;;;9.85;100.00
6514;BME280;3290;47.716;9.070;2023-02-23T06:40:26;96640.56;;;9.99;100.00
6514;BME280;3290;47.716;9.070;2023-02-23T06:42:51;96650.72;;;9.89;100.00
6514;BME280;3290;47.716;9.070;2023-02-23T06:45:17;96645.41;;;9.96;100.00
6514;BME280;3290;47.716;9.070;2023-02-23T06:47:46;96655.84;;;10.02;100.00
6514;BME280;3290;47.716;9.070;2023-02-23T06:50:12;96648.94;;;10.07;100.00
6514;BME280;3290;47.716;9.070;2023-02-23T06:52:38;96652.56;;;10.24;100.00
6514;BME280;3290;47.716;9.070;2023-02-23T06:55:04;96650.75;;;10.25;100.00
6514;BME280;3290;47.716;9.070;2023-02-23T06:57:29;96647.91;;;10.08;100.00
6514;BME280;3290;47.716;9.070;2023-02-23T06:59:55;96658.66;;;10.18;100.00
6514;BME280;3290;47.716;9.070;2023-02-23T07:02:21;96662.47;;;10.22;100.00
6514;BME280;3290;47.716;9.070;2023-02-23T07:04:47;96665.25;;;10.27;100.00
6514;BME280;3290;47.716;9.070;2023-02-23T07:07:12;96664.78;;;10.30;100.00
6514;BME280;3290;47.716;9.070;2023-02-23T07:09:39;96673.69;;;10.29;100.00
6514;BME280;3290;47.716;9.070;2023-02-23T07:12:04;96665.88;;;10.40;100.00
6514;BME280;3290;47.716;9.070;2023-02-23T07:14:30;96671.19;;;10.34;100.00
6514;BME280;3290;47.716;9.070;2023-02-23T07:16:57;96676.28;;;10.29;100.00
6514;BME280;3290;47.716;9.070;2023-02-23T07:19:22;96673.88;;;10.45;100.00
6514;BME280;3290;47.716;9.070;2023-02-23T07:21:48;96680.19;;;10.56;100.00
6514;BME280;3290;47.716;9.070;2023-02-23T07:24:13;96666.44;;;10.60;100.00
6514;BME280;3290;47.716;9.070;2023-02-23T07:26:38;96677.78;;;10.54;100.00
6514;BME280;3290;47.716;9.070;2023-02-23T07:29:09;96665.47;;;10.73;100.00
6514;BME280;3290;47.716;9.070;2023-02-23T07:31:36;96671.59;;;10.67;100.00
6514;BME280;3290;47.716;9.070;2023-02-23T07:34:02;96674.72;;;10.75;100.00
6514;BME280;3290;47.716;9.070;2023-02-23T07:36:27;96668.53;;;10.70;100.00
6514;BME280;3290;47.716;9.070;2023-02-23T07:38:52;96678.09;;;10.64;100.00
6514;BME280;3290;47.716;9.070;2023-02-23T07:41:18;96671.59;;;10.67;100.00
6514;BME280;3290;47.716;9.070;2023-02-23T07:43:44;96669.34;;;10.70;100.00
6514;BME280;3290;47.716;9.070;2023-02-23T07:46:09;96674.03;;;10.97;100.00
6514;BME280;3290;47.716;9.070;2023-02-23T07:48:34;96676.31;;;11.05;100.00
6514;BME280;3290;47.716;9.070;2023-02-23T07:51:00;96674.19;;;11.14;100.00
6514;BME280;3290;47.716;9.070;2023-02-23T07:53:25;96676.31;;;11.05;100.00
6514;BME280;3290;47.716;9.070;2023-02-23T07:55:58;96676.72;;;11.20;100.00
6514;BME280;3290;47.716;9.070;2023-02-23T07:58:25;96678.38;;;11.15;100.00
6514;BME280;3290;47.716;9.070;2023-02-23T08:00:51;96671.63;;;11.36;100.00
6514;BME280;3290;47.716;9.070;2023-02-23T08:03:16;96679.44;;;11.14;100.00
6514;BME280;3290;47.716;9.070;2023-02-23T08:05:42;96679.88;;;11.11;100.00
6514;BME280;3290;47.716;9.070;2023-02-23T08:08:09;96680.03;;;11.27;100.00
6514;BME280;3290;47.716;9.070;2023-02-23T08:10:35;96668.38;;;11.23;100.00
6514;BME280;3290;47.716;9.070;2023-02-23T08:13:01;96666.81;;;11.22;100.00
6514;BME280;3290;47.716;9.070;2023-02-23T08:15:26;96668.16;;;11.13;100.00
6514;BME280;3290;47.716;9.070;2023-02-23T08:17:52;96673.31;;;11.31;100.00
6514;BME280;3290;47.716;9.070;2023-02-23T08:20:17;96679.13;;;11.33;100.00
6514;BME280;3290;47.716;9.070;2023-02-23T08:22:43;96682.84;;;11.55;100.00
6514;BME280;3290;47.716;9.070;2023-02-23T08:25:08;96688.91;;;11.55;100.00
6514;BME280;3290;47.716;9.070;2023-02-23T08:27:35;96686.63;;;11.47;100.00
6514;BME280;3290;47.716;9.070;2023-02-23T08:30:01;96692.47;;;11.60;100.00
6514;BME280;3290;47.716;9.070;2023-02-23T08:32:32;96685.22;;;11.04;100.00
6514;BME280;3290;47.716;9.070;2023-02-23T08:34:59;96687.59;;;10.77;100.00
6514;BME280;3290;47.716;9.070;2023-02-23T08:37:27;96694.44;;;10.77;100.00
6514;BME280;3290;47.716;9.070;2023-02-23T08:39:53;96692.31;;;11.15;100.00
6514;BME280;3290;47.716;9.070;2023-02-23T08:42:19;96684.75;;;11.36;100.00
6514;BME280;3290;47.716;9.070;2023-02-23T08:44:45;96682.53;;;11.62;100.00
6514;BME280;3290;47.716;9.070;2023-02-23T08:47:10;96683.72;;;11.78;100.00
6514;BME280;3290;47.716;9.070;2023-02-23T08:49:36;96681.16;;;12.05;100.00
6514;BME280;3290;47.716;9.070;2023-02-23T08:52:01;96687.78;;;12.31;100.00
6514;BME280;3290;47.716;9.070;2023-02-23T08:54:26;96685.25;;;12.47;100.00
6514;BME280;3290;47.716;9.070;2023-02-23T08:56:54;96691.28;;;12.47;100.00
6514;BME280;3290;47.716;9.070;2023-02-23T08:59:21;96686.88;;;12.76;100.00
6514;BME280;3290;47.716;9.070;2023-02-23T09:01:46;96675.53;;;12.98;100.00
6514;BME280;3290;47.716;9.070;2023-02-23T09:04:11;96684.16;;;13.37;100.00
6514;BME280;3290;47.716;9.070;2023-02-23T09:06:37;96691.31;;;13.25;100.00
6514;BME280;3290;47.716;9.070;2023-02-23T09:09:03;96678.50;;;13.45;100.00
6514;BME280;3290;47.716;9.070;2023-02-23T09:11:29;96685.63;;;13.94;100.00
6514;BME280;3290;47.716;9.070;2023-02-23T09:13:54;96679.28;;;14.65;100.00
6514;BME280;3290;47.716;9.070;2023-02-23T09:16:19;96681.06;;;14.81;96.82
6514;BME280;3290;47.716;9.070;2023-02-23T09:18:45;96685.53;;;14.59;95.61
6514;BME280;3290;47.716;9.070;2023-02-23T09:21:16;96682.22;;;14.89;92.97
6514;BME280;3290;47.716;9.070;2023-02-23T09:23:46;96684.63;;;14.91;91.74
6514;BME280;3290;47.716;9.070;2023-02-23T09:26:13;96690.75;;;14.16;93.80
6514;BME280;3290;47.716;9.070;2023-02-23T09:28:39;96686.16;;;15.61;89.50
6514;BME280;3290;47.716;9.070;2023-02-23T09:31:10;96685.34;;;15.60;86.54
6514;BME280;3290;47.716;9.070;2023-02-23T09:33:37;96683.53;;;15.13;89.99
6514;BME280;3290;47.716;9.070;2023-02-23T09:36:07;96684.97;;;15.78;86.60
6514;BME280;3290;47.716;9.070;2023-02-23T09:38:33;96684.97;;;16.45;80.71
6514;BME280;3290;47.716;9.070;2023-02-23T09:40:58;96687.38;;;15.79;86.80
6514;BME280;3290;47.716;9.070;2023-02-23T09:44:06;96691.19;;;15.36;87.50
6514;BME280;3290;47.716;9.070;2023-02-23T09:46:47;96692.78;;;14.89;90.30
6514;BME280;3290;47.716;9.070;2023-02-23T09:49:22;96688.72;;;15.03;88.82
6514;BME280;3290;47.716;9.070;2023-02-23T09:51:53;96685.88;;;14.88;90.56
6514;BME280;3290;47.716;9.070;2023-02-23T09:54:23;96688.84;;;14.92;89.98
6514;BME280;3290;47.716;9.070;2023-02-23T09:56:52;96687.84;;;14.98;90.56
6514;BME280;3290;47.716;9.070;2023-02-23T09:59:20;96688.13;;;14.75;90.51
6514;BME280;3290;47.716;9.070;2023-02-23T10:07:17;96687.91;;;14.39;93.81
6514;BME280;3290;47.716;9.070;2023-02-23T10:16:06;96687.16;;;13.90;96.44
6514;BME280;3290;47.716;9.070;2023-02-23T10:21:50;96674.00;;;14.65;93.51
6514;BME280;3290;47.716;9.070;2023-02-23T10:24:28;96671.75;;;14.14;94.51
6514;BME280;3290;47.716;9.070;2023-02-23T10:27:14;96672.53;;;14.15;95.79
6514;BME280;3290;47.716;9.070;2023-02-23T10:29:45;96673.50;;;14.09;95.92
6514;BME280;3290;47.716;9.070;2023-02-23T10:34:48;96669.94;;;14.79;91.38
6514;BME280;3290;47.716;9.070;2023-02-23T10:37:17;96668.75;;;15.33;90.79
6514;BME280;3290;47.716;9.070;2023-02-23T10:39:43;96671.81;;;15.25;89.37
6514;BME280;3290;47.716;9.070;2023-02-23T10:42:14;96670.34;;;15.97;86.74
6514;BME280;3290;47.716;9.070;2023-02-23T10:44:43;96667.16;;;15.95;85.06
6514;BME280;3290;47.716;9.070;2023-02-23T10:47:15;96665.69;;;15.46;87.87
6514;BME280;3290;47.716;9.070;2023-02-23T10:49:46;96667.84;;;15.85;85.92
6514;BME280;3290;47.716;9.070;2023-02-23T10:52:25;96664.09;;;16.53;82.17
6514;BME280;3290;47.716;9.070;2023-02-23T10:54:52;96655.97;;;17.65;76.58
6514;BME280;3290;47.716;9.070;2023-02-23T11:02:25;96647.88;;;18.69;69.17
6514;BME280;3290;47.716;9.070;2023-02-23T11:04:56;96642.19;;;18.17;70.92
6514;BME280;3290;47.716;9.070;2023-02-23T11:07:28;96638.31;;;18.73;63.13
6514;BME280;3290;47.716;9.070;2023-02-23T11:09:58;96633.88;;;19.59;60.45
6514;BME280;3290;47.716;9.070;2023-02-23T11:12:38;96636.22;;;18.60;60.88
6514;BME280;3290;47.716;9.070;2023-02-23T11:17:44;96635.34;;;18.84;59.79
6514;BME280;3290;47.716;9.070;2023-02-23T11:22:43;96624.41;;;20.61;56.26
6514;BME280;3290;47.716;9.070;2023-02-23T11:25:29;96617.44;;;20.42;55.59
6514;BME280;3290;47.716;9.070;2023-02-23T11:27:56;96622.13;;;19.98;57.23
6514;BME280;3290;47.716;9.070;2023-02-23T11:30:24;96624.03;;;20.21;58.75
6514;BME280;3290;47.716;9.070;2023-02-23T11:32:56;96617.84;;;19.69;56.48
6514;BME280;3290;47.716;9.070;2023-02-23T11:37:48;96608.75;;;18.99;56.94
6514;BME280;3290;47.716;9.070;2023-02-23T11:40:25;96601.25;;;19.49;53.06
6514;BME280;3290;47.716;9.070;2023-02-23T11:45:21;96603.56;;;19.93;55.60
6514;BME280;3290;47.716;9.070;2023-02-23T11:47:49;96599.31;;;19.92;53.89
6514;BME280;3290;47.716;9.070;2023-02-23T11:53:13;96590.03;;;20.18;54.08
6514;BME280;3290;47.716;9.070;2023-02-23T11:55:46;96584.63;;;19.66;52.85
6514;BME280;3290;47.716;9.070;2023-02-23T12:01:06;96582.56;;;21.76;47.91
6514;BME280;3290;47.716;9.070;2023-02-23T12:04:04;96575.88;;;20.69;49.94
6514;BME280;3290;47.716;9.070;2023-02-23T12:06:37;96578.34;;;20.14;49.59
6514;BME280;3290;47.716;9.070;2023-02-23T12:09:11;96580.53;;;20.07;50.89
6514;BME280;3290;47.716;9.070;2023-02-23T12:11:46;96574.84;;;19.95;51.37
6514;BME280;3290;47.716;9.070;2023-02-23T12:14:28;96567.28;;;19.74;51.63
6514;BME280;3290;47.716;9.070;2023-02-23T12:17:00;96560.13;;;20.90;48.20
6514;BME280;3290;47.716;9.070;2023-02-23T12:19:32;96565.22;;;21.92;47.05
6514;BME280;3290;47.716;9.070;2023-02-23T12:22:06;96564.56;;;21.68;46.00
6514;BME280;3290;47.716;9.070;2023-02-23T12:25:01;96568.22;;;21.04;48.40
6514;BME280;3290;47.716;9.070;2023-02-23T12:27:38;96559.16;;;21.73;48.35
6514;BME280;3290;47.716;9.070;2023-02-23T12:32:55;96551.84;;;21.47;46.28
6514;BME280;3290;47.716;9.070;2023-02-23T12:35:41;96556.69;;;20.90;48.39
6514;BME280;3290;47.716;9.070;2023-02-23T12:38:43;96550.09;;;20.64;48.87
6514;BME280;3290;47.716;9.070;2023-02-23T12:41:17;96549.63;;;20.16;48.92
6514;BME280;3290;47.716;9.070;2023-02-23T12:43:51;96554.78;;;19.08;51.08
6514;BME280;3290;47.716;9.070;2023-02-23T12:46:37;96555.34;;;19.38;51.56
6514;BME280;3290;47.716;9.070;2023-02-23T12:49:30;96546.66;;;20.41;49.76
6514;BME280;3290;47.716;9.070;2023-02-23T12:54:34;96548.78;;;19.92;50.67
6514;BME280;3290;47.716;9.070;2023-02-23T12:57:12;96553.91;;;19.51;51.26
6514;BME280;3290;47.716;9.070;2023-02-23T13:05:22;96528.56;;;20.19;50.03
6514;BME280;3290;47.716;9.070;2023-02-23T13:13:11;96525.59;;;20.21;48.43
6514;BME280;3290;47.716;9.070;2023-02-23T13:18:40;96529.69;;;21.65;45.69
6514;BME280;3290;47.716;9.070;2023-02-23T13:23:58;96525.34;;;20.17;48.03
6514;BME280;3290;47.716;9.070;2023-02-23T13:29:36;96531.69;;;19.98;50.35
6514;BME280;3290;47.716;9.070;2023-02-23T13:32:05;96514.38;;;21.57;45.87
6514;BME280;3290;47.716;9.070;2023-02-23T13:34:38;96523.34;;;21.47;45.13
6514;BME280;3290;47.716;9.070;2023-02-23T13:37:06;96513.59;;;21.56;44.67
6514;BME280;3290;47.716;9.070;2023-02-23T13:44:54;96511.88;;;21.92;43.61
6514;BME280;3290;47.716;9.070;2023-02-23T13:49:53;96508.31;;;20.83;46.05
6514;BME280;3290;47.716;9.070;2023-02-23T13:52:29;96513.75;;;21.28;45.50
6514;BME280;3290;47.716;9.070;2023-02-23T13:54:57;96500.81;;;21.53;43.94
6514;BME280;3290;47.716;9.070;2023-02-23T13:57:31;96500.13;;;20.56;46.97
6514;BME280;3290;47.716;9.070;2023-02-23T13:59:57;96499.66;;;21.09;45.76
6514;BME280;3290;47.716;9.070;2023-02-23T14:02:33;96499.84;;;21.63;43.48
6514;BME280;3290;47.716;9.070;2023-02-23T14:05:25;96496.97;;;21.46;42.97
6514;BME280;3290;47.716;9.070;2023-02-23T14:07:53;96504.38;;;21.30;43.56
6514;BME280;3290;47.716;9.070;2023-02-23T14:10:22;96496.47;;;22.02;42.94
6514;BME280;3290;47.716;9.070;2023-02-23T14:21:11;96497.75;;;20.13;46.98
6514;BME280;3290;47.716;9.070;2023-02-23T14:26:15;96482.84;;;20.77;45.04
6514;BME280;3290;47.716;9.070;2023-02-23T14:28:47;96492.84;;;20.02;47.85
6514;BME280;3290;47.716;9.070;2023-02-23T14:31:33;96486.66;;;20.07;48.08
6514;BME280;3290;47.716;9.070;2023-02-23T14:34:06;96486.72;;;19.73;48.48
6514;BME280;3290;47.716;9.070;2023-02-23T14:36:37;96479.09;;;20.37;46.27
6514;BME280;3290;47.716;9.070;2023-02-23T14:39:08;96490.06;;;18.89;49.93
6514;BME280;3290;47.716;9.070;2023-02-23T14:46:52;96478.41;;;19.85;48.26
6514;BME280;3290;47.716;9.070;2023-02-23T14:49:20;96482.34;;;19.31;49.48
6514;BME280;3290;47.716;9.070;2023-02-23T14:51:50;96475.44;;;19.30;50.36
6514;BME280;3290;47.716;9.070;2023-02-23T14:54:25;96484.38;;;19.11;49.98
6514;BME280;3290;47.716;9.070;2023-02-23T14:56:53;96478.75;;;19.73;49.74
6514;BME280;3290;47.716;9.070;2023-02-23T14:59:22;96487.34;;;19.04;51.23
6514;BME280;3290;47.716;9.070;2023-02-23T15:01:49;96483.63;;;19.05;50.96
6514;BME280;3290;47.716;9.070;2023-02-23T15:04:18;96479.81;;;18.30;52.82
6514;BME280;3290;47.716;9.070;2023-02-23T15:06:44;96475.75;;;18.90;51.54
6514;BME280;3290;47.716;9.070;2023-02-23T15:11:50;96471.31;;;19.14;50.99
6514;BME280;3290;47.716;9.070;2023-02-23T15:14:19;96478.41;;;18.43;52.40
6514;BME280;3290;47.716;9.070;2023-02-23T15:16:44;96476.38;;;18.78;51.64
6514;BME280;3290;47.716;9.070;2023-02-23T15:19:16;96478.91;;;18.92;51.05
6514;BME280;3290;47.716;9.070;2023-02-23T15:21:48;96477.25;;;18.01;53.41
6514;BME280;3290;47.716;9.070;2023-02-23T15:24:14;96477.84;;;18.55;51.49
6514;BME280;3290;47.716;9.070;2023-02-23T15:26:41;96476.91;;;18.75;51.94
6514;BME280;3290;47.716;9.070;2023-02-23T15:29:16;96477.75;;;19.08;50.35
6514;BME280;3290;47.716;9.070;2023-02-23T15:31:44;96478.69;;;17.68;53.99
6514;BME280;3290;47.716;9.070;2023-02-23T15:34:26;96476.28;;;17.77;54.00
6514;BME280;3290;47.716;9.070;2023-02-23T15:37:02;96478.56;;;18.08;53.73
6514;BME280;3290;47.716;9.070;2023-02-23T15:39:54;96469.66;;;18.47;52.43
6514;BME280;3290;47.716;9.070;2023-02-23T15:42:24;96478.41;;;18.43;52.98